Terminal Aerodrome Forecast
Issued by NWS Newport/Morehead City, NC

Home | Current Version | Previous Version | Graphics & Text | Print | Product List | Glossary On
Versions: 1 2 3 4 5 6 7 8 9 10 11 12 13 14
000
FTUS42 KMHX 281727
TAFEWN
TAF
KEWN 281727Z 2818/2918 21008KT P6SM VCTS SCT050CB
     FM282200 22006KT P6SM FEW050
     FM291500 24008G16KT P6SM FEW050=

USA.gov is the U.S. government's official web portal to all federal, state and local government web resources and services.